createdAt,value
2023-08-27T00:00:22.870Z,2.20
2023-08-27T00:03:44.423Z,2.13
2023-08-27T00:07:06.152Z,2.00
2023-08-27T00:10:28.869Z,2.20
2023-08-27T00:13:50.523Z,2.53
2023-08-27T00:17:11.790Z,2.50
2023-08-27T00:20:35.705Z,2.53
2023-08-27T00:23:57.315Z,2.40
2023-08-27T00:27:20.902Z,2.90
2023-08-27T00:30:42.647Z,2.87
2023-08-27T00:34:03.941Z,3.13
2023-08-27T00:37:25.783Z,3.03
2023-08-27T00:40:47.311Z,2.97
2023-08-27T00:44:10.660Z,2.60
2023-08-27T00:47:32.667Z,3.53
2023-08-27T00:50:54.516Z,3.03
2023-08-27T00:54:16.087Z,3.43
2023-08-27T00:57:38.568Z,3.10
2023-08-27T01:01:02.133Z,3.20
2023-08-27T01:04:23.565Z,2.80
2023-08-27T01:07:51.425Z,2.90
2023-08-27T01:11:20.499Z,2.40
2023-08-27T01:14:47.902Z,2.40
2023-08-27T01:18:13.155Z,2.40
2023-08-27T01:21:36.046Z,2.33
2023-08-27T01:24:57.714Z,2.07
2023-08-27T01:28:31.702Z,2.10
2023-08-27T01:32:07.671Z,1.77
2023-08-27T01:35:31.775Z,2.13
2023-08-27T01:38:54.769Z,2.23
2023-08-27T01:42:16.264Z,2.27
2023-08-27T01:45:37.684Z,2.13
2023-08-27T01:48:59.397Z,2.40
2023-08-27T01:52:21.378Z,2.70
2023-08-27T01:55:44.853Z,2.60
2023-08-27T01:59:06.433Z,2.67
2023-08-27T02:02:27.975Z,2.80
2023-08-27T02:05:49.866Z,2.47
2023-08-27T02:09:11.568Z,3.07
2023-08-27T02:12:34.309Z,3.00
2023-08-27T02:15:55.619Z,2.77
2023-08-27T02:19:17.440Z,3.20
2023-08-27T02:22:38.883Z,3.03
2023-08-27T02:26:00.724Z,3.20
2023-08-27T02:29:23.577Z,3.23
2023-08-27T02:32:45.300Z,2.50
2023-08-27T02:36:07.093Z,2.90
2023-08-27T02:39:28.701Z,2.50
2023-08-27T02:42:50.556Z,2.90
2023-08-27T02:46:13.309Z,3.30
2023-08-27T02:49:34.741Z,3.70
2023-08-27T02:52:56.047Z,2.80
2023-08-27T02:56:17.735Z,3.50
2023-08-27T02:59:39.380Z,3.57
2023-08-27T03:03:02.376Z,3.70
2023-08-27T03:06:24.059Z,3.33
2023-08-27T03:09:45.484Z,3.17
2023-08-27T03:13:07.142Z,3.20
2023-08-27T03:16:28.758Z,3.27
2023-08-27T03:19:51.626Z,3.47
2023-08-27T03:23:13.228Z,3.40
2023-08-27T03:26:34.654Z,3.07
2023-08-27T03:29:56.216Z,2.70
2023-08-27T03:33:18.140Z,3.10
2023-08-27T03:36:41.067Z,2.87
2023-08-27T03:40:02.439Z,2.77
2023-08-27T03:43:24.107Z,2.93
2023-08-27T03:46:45.490Z,3.10
2023-08-27T03:50:08.467Z,2.87
2023-08-27T03:53:31.989Z,2.83
2023-08-27T03:56:53.363Z,3.00
2023-08-27T04:00:15.604Z,2.70
2023-08-27T04:03:37.340Z,3.07
2023-08-27T04:06:59.862Z,3.00
2023-08-27T04:10:22.912Z,2.93
2023-08-27T04:13:44.362Z,2.80
2023-08-27T04:17:06.094Z,2.60
2023-08-27T04:20:31.149Z,2.80
2023-08-27T04:23:52.966Z,2.53
2023-08-27T04:27:16.971Z,2.80
2023-08-27T04:30:38.385Z,2.97
2023-08-27T04:33:59.975Z,2.57
2023-08-27T04:37:21.601Z,2.90
2023-08-27T04:40:43.148Z,2.33
2023-08-27T04:44:06.683Z,2.50
2023-08-27T04:47:28.350Z,2.77
2023-08-27T04:50:52.971Z,2.70
2023-08-27T04:54:14.525Z,2.93
2023-08-27T04:57:36.839Z,2.87
2023-08-27T05:01:00.597Z,2.60
2023-08-27T05:04:21.902Z,2.77
2023-08-27T05:07:43.515Z,3.00
2023-08-27T05:11:05.139Z,2.93
2023-08-27T05:14:27.354Z,3.10
2023-08-27T05:17:50.634Z,2.53
2023-08-27T05:21:12.141Z,3.40
2023-08-27T05:24:33.658Z,3.60
2023-08-27T05:27:55.247Z,2.80
2023-08-27T05:31:16.705Z,2.80
2023-08-27T05:34:39.419Z,2.53
2023-08-27T05:38:01.056Z,3.07
2023-08-27T05:41:22.817Z,3.03
2023-08-27T05:44:44.330Z,2.93
2023-08-27T05:48:06.759Z,3.33
2023-08-27T05:51:29.961Z,3.07
2023-08-27T05:54:51.374Z,2.70
2023-08-27T05:58:13.054Z,2.60
2023-08-27T06:01:34.430Z,3.10
2023-08-27T06:04:56.086Z,3.07
2023-08-27T06:08:25.689Z,3.17
2023-08-27T06:11:47.129Z,2.60
2023-08-27T06:15:09.554Z,2.97
2023-08-27T06:18:31.116Z,2.60
2023-08-27T06:21:52.440Z,3.63
2023-08-27T06:25:15.726Z,3.43
2023-08-27T06:28:37.434Z,3.60
2023-08-27T06:31:59.047Z,3.60
2023-08-27T06:35:20.458Z,3.47
2023-08-27T06:38:41.822Z,3.03
2023-08-27T06:42:04.687Z,3.10
2023-08-27T06:45:27.769Z,2.97
2023-08-27T06:48:49.168Z,3.03
2023-08-27T06:52:10.872Z,2.80
2023-08-27T06:55:32.423Z,2.73
2023-08-27T06:58:55.239Z,2.53
2023-08-27T07:02:17.192Z,2.67
2023-08-27T07:05:40.006Z,2.60
2023-08-27T07:09:01.532Z,2.10
2023-08-27T07:12:22.972Z,2.90
2023-08-27T07:15:46.037Z,2.30
2023-08-27T07:19:07.482Z,2.63
2023-08-27T07:22:29.089Z,2.60
2023-08-27T07:25:50.468Z,2.70
2023-08-27T07:29:12.047Z,2.50
2023-08-27T07:32:35.128Z,2.40
2023-08-27T07:35:56.419Z,2.80
2023-08-27T07:39:19.865Z,2.50
2023-08-27T07:42:42.820Z,2.43
2023-08-27T07:46:05.663Z,2.43
2023-08-27T07:49:28.405Z,2.50
2023-08-27T07:52:50.915Z,3.10
2023-08-27T07:56:12.373Z,2.93
2023-08-27T07:59:33.880Z,2.90
2023-08-27T08:02:55.652Z,2.80
2023-08-27T08:06:18.581Z,2.93
2023-08-27T08:09:39.953Z,2.80
2023-08-27T08:13:01.572Z,2.60
2023-08-27T08:16:24.492Z,2.80
2023-08-27T08:19:45.987Z,2.80
2023-08-27T08:23:08.600Z,3.60
2023-08-27T08:26:29.995Z,3.20
2023-08-27T08:29:52.059Z,3.23
2023-08-27T08:33:13.628Z,3.27
2023-08-27T08:36:35.249Z,3.20
2023-08-27T08:39:58.357Z,2.53
2023-08-27T08:43:30.038Z,3.13
2023-08-27T08:46:53.131Z,2.73
2023-08-27T08:50:16.685Z,3.07
2023-08-27T08:53:41.248Z,2.60
2023-08-27T08:57:05.097Z,2.57
2023-08-27T09:00:27.663Z,2.63
2023-08-27T09:03:50.307Z,2.60
2023-08-27T09:07:12.048Z,2.27
2023-08-27T09:10:34.095Z,2.30
2023-08-27T09:13:59.374Z,2.60
2023-08-27T09:17:21.226Z,2.33
2023-08-27T09:20:42.903Z,2.20
2023-08-27T09:24:04.737Z,2.13
2023-08-27T09:27:27.593Z,2.20
2023-08-27T09:30:50.273Z,2.40
2023-08-27T09:34:12.476Z,2.10
2023-08-27T09:37:40.281Z,2.70
2023-08-27T09:41:14.809Z,2.80
2023-08-27T09:44:36.368Z,2.47
2023-08-27T09:47:59.853Z,2.90
2023-08-27T09:51:21.546Z,2.77
2023-08-27T09:54:44.938Z,2.30
2023-08-27T09:58:07.056Z,3.00
2023-08-27T10:01:35.885Z,2.57
2023-08-27T10:04:59.018Z,2.37
2023-08-27T10:08:20.688Z,2.27
2023-08-27T10:11:45.088Z,2.50
2023-08-27T10:15:07.590Z,2.47
2023-08-27T10:18:29.834Z,2.23
2023-08-27T10:21:52.704Z,2.23
2023-08-27T10:25:16.476Z,2.37
2023-08-27T10:28:38.125Z,2.40
2023-08-27T10:31:59.590Z,2.10
2023-08-27T10:35:21.621Z,2.50
2023-08-27T10:38:46.707Z,1.90
2023-08-27T10:42:08.477Z,1.93
2023-08-27T10:45:29.850Z,1.90
2023-08-27T10:48:52.734Z,1.90
2023-08-27T10:52:16.207Z,1.60
2023-08-27T10:55:38.881Z,1.73
2023-08-27T10:59:00.753Z,1.40
2023-08-27T11:02:22.651Z,1.60
2023-08-27T11:05:43.922Z,1.80
2023-08-27T11:09:17.556Z,1.53
2023-08-27T11:12:45.533Z,1.90
2023-08-27T11:16:12.486Z,1.80
2023-08-27T11:19:36.163Z,1.50
2023-08-27T11:22:58.992Z,1.30
2023-08-27T11:26:21.238Z,1.50
2023-08-27T11:29:46.012Z,1.50
2023-08-27T11:33:07.691Z,1.60
2023-08-27T11:36:29.168Z,1.53
2023-08-27T11:39:50.657Z,1.73
2023-08-27T11:43:12.418Z,1.60
2023-08-27T11:46:35.945Z,1.40
2023-08-27T11:50:00.362Z,1.30
2023-08-27T11:53:24.315Z,1.30
2023-08-27T11:56:46.123Z,1.50
2023-08-27T12:00:12.429Z,1.23
2023-08-27T12:03:35.396Z,1.40
2023-08-27T12:07:02.029Z,1.37
2023-08-27T12:10:24.201Z,1.40
2023-08-27T12:13:49.093Z,1.60
2023-08-27T12:17:11.344Z,1.83
2023-08-27T12:20:37.092Z,3.10
2023-08-27T12:23:58.665Z,3.40
2023-08-27T12:27:23.986Z,2.37
2023-08-27T12:30:51.272Z,2.40
2023-08-27T12:34:12.747Z,2.73
2023-08-27T12:37:35.557Z,2.60
2023-08-27T12:40:56.746Z,2.83
2023-08-27T12:44:18.355Z,2.50
2023-08-27T12:47:39.870Z,2.17
2023-08-27T12:51:01.045Z,2.20
2023-08-27T12:54:23.893Z,2.10
2023-08-27T12:57:45.190Z,2.00
2023-08-27T13:01:06.510Z,1.80
2023-08-27T13:04:30.218Z,1.70
2023-08-27T13:07:51.646Z,2.10
2023-08-27T13:11:14.757Z,2.20
2023-08-27T13:14:36.554Z,2.37
2023-08-27T13:17:58.171Z,2.53
2023-08-27T13:21:20.840Z,2.20
2023-08-27T13:24:42.497Z,2.60
2023-08-27T13:28:05.790Z,2.50
2023-08-27T13:31:27.988Z,2.70
2023-08-27T13:34:50.155Z,2.80
2023-08-27T13:38:11.704Z,2.40
2023-08-27T13:41:36.583Z,4.10
2023-08-27T13:44:59.795Z,6.83
2023-08-27T13:48:21.446Z,8.77
2023-08-27T13:51:43.048Z,2.20
2023-08-27T13:55:05.181Z,5.67
2023-08-27T13:58:26.655Z,3.03
2023-08-27T14:01:49.953Z,1.90
2023-08-27T14:05:11.814Z,2.30
2023-08-27T14:08:33.556Z,2.50
2023-08-27T14:11:54.855Z,3.40
2023-08-27T14:15:16.738Z,3.33
2023-08-27T14:18:39.610Z,3.30
2023-08-27T14:22:01.277Z,3.03
2023-08-27T14:25:22.479Z,2.93
2023-08-27T14:28:44.416Z,2.50
2023-08-27T14:32:06.505Z,2.60
2023-08-27T14:35:29.536Z,2.70
2023-08-27T14:38:51.059Z,2.23
2023-08-27T14:42:12.166Z,2.60
2023-08-27T14:45:33.742Z,2.50
2023-08-27T14:48:55.331Z,2.50
2023-08-27T14:52:18.363Z,2.40
2023-08-27T14:55:39.654Z,2.50
2023-08-27T14:59:00.978Z,1.93
2023-08-27T15:02:22.629Z,1.87
2023-08-27T15:05:43.992Z,1.83
2023-08-27T15:09:06.855Z,1.60
2023-08-27T15:12:29.732Z,1.50
2023-08-27T15:15:51.368Z,1.67
2023-08-27T15:19:13.061Z,1.43
2023-08-27T15:22:34.338Z,1.30
2023-08-27T15:25:57.356Z,1.50
2023-08-27T15:29:19.050Z,1.43
2023-08-27T15:32:40.465Z,1.50
2023-08-27T15:36:02.047Z,1.20
2023-08-27T15:39:23.391Z,1.67
2023-08-27T15:42:48.598Z,1.90
2023-08-27T15:46:10.296Z,1.77
2023-08-27T15:49:33.466Z,1.63
2023-08-27T15:52:55.142Z,1.80
2023-08-27T15:56:17.387Z,1.60
2023-08-27T15:59:40.543Z,1.67
2023-08-27T16:03:02.032Z,1.40
2023-08-27T16:06:23.852Z,1.50
2023-08-27T16:09:47.335Z,1.43
2023-08-27T16:13:10.067Z,1.30
2023-08-27T16:16:33.651Z,1.30
2023-08-27T16:19:55.082Z,1.40
2023-08-27T16:23:16.363Z,1.40
2023-08-27T16:26:37.778Z,1.40
2023-08-27T16:29:59.141Z,1.30
2023-08-27T16:33:21.936Z,1.60
2023-08-27T16:36:43.697Z,1.53
2023-08-27T16:40:06.956Z,1.83
2023-08-27T16:43:28.601Z,1.80
2023-08-27T16:46:50.506Z,1.60
2023-08-27T16:50:13.494Z,1.60
2023-08-27T16:53:35.364Z,1.80
2023-08-27T16:56:56.999Z,1.60
2023-08-27T17:00:19.350Z,1.70
2023-08-27T17:03:40.845Z,1.90
2023-08-27T17:07:04.076Z,1.80
2023-08-27T17:10:25.657Z,2.30
2023-08-27T17:13:46.902Z,2.17
2023-08-27T17:17:09.262Z,1.33
2023-08-27T17:20:30.737Z,1.70
2023-08-27T17:23:53.669Z,1.70
2023-08-27T17:27:15.353Z,1.50
2023-08-27T17:30:36.848Z,1.37
2023-08-27T17:33:58.191Z,1.40
2023-08-27T17:37:21.068Z,1.30
2023-08-27T17:40:44.185Z,1.10
2023-08-27T17:44:06.062Z,1.40
2023-08-27T17:47:27.577Z,1.30
2023-08-27T17:50:48.891Z,1.20
2023-08-27T17:54:11.635Z,1.40
2023-08-27T17:57:34.539Z,1.53
2023-08-27T18:00:56.810Z,1.57
2023-08-27T18:04:18.040Z,1.90
2023-08-27T18:07:39.613Z,1.83
2023-08-27T18:11:01.457Z,2.00
2023-08-27T18:14:24.131Z,1.93
2023-08-27T18:17:45.516Z,2.10
2023-08-27T18:21:06.922Z,2.27
2023-08-27T18:24:28.333Z,2.37
2023-08-27T18:27:50.250Z,2.00
2023-08-27T18:31:13.240Z,2.00
2023-08-27T18:34:34.875Z,1.83
2023-08-27T18:37:57.094Z,1.70
2023-08-27T18:41:18.827Z,1.97
2023-08-27T18:44:40.042Z,1.53
2023-08-27T18:48:02.996Z,2.10
2023-08-27T18:51:24.762Z,1.60
2023-08-27T18:54:46.274Z,2.10
2023-08-27T18:58:08.426Z,1.83
2023-08-27T19:01:30.065Z,1.70
2023-08-27T19:04:52.760Z,2.10
2023-08-27T19:08:14.126Z,1.83
2023-08-27T19:11:35.650Z,1.80
2023-08-27T19:14:57.414Z,2.00
2023-08-27T19:18:18.830Z,1.97
2023-08-27T19:21:41.488Z,2.03
2023-08-27T19:25:02.771Z,1.83
2023-08-27T19:28:24.078Z,2.17
2023-08-27T19:31:47.641Z,1.80
2023-08-27T19:35:10.378Z,2.13
2023-08-27T19:38:33.428Z,2.07
2023-08-27T19:41:54.760Z,1.87
2023-08-27T19:45:16.423Z,1.93
2023-08-27T19:48:38.456Z,2.20
2023-08-27T19:52:00.089Z,2.57
2023-08-27T19:55:22.806Z,2.20
2023-08-27T19:58:44.868Z,2.30
2023-08-27T20:02:09.405Z,2.23
2023-08-27T20:05:30.842Z,2.27
2023-08-27T20:08:52.617Z,2.00
2023-08-27T20:12:15.463Z,1.73
2023-08-27T20:15:37.387Z,2.00
2023-08-27T20:18:58.604Z,2.00
2023-08-27T20:22:19.909Z,1.73
2023-08-27T20:25:41.233Z,1.60
2023-08-27T20:29:05.045Z,1.70
2023-08-27T20:32:26.294Z,2.20
2023-08-27T20:35:47.581Z,1.60
2023-08-27T20:39:10.255Z,2.10
2023-08-27T20:42:31.835Z,1.80
2023-08-27T20:45:54.780Z,2.00
2023-08-27T20:49:16.240Z,1.70
2023-08-27T20:52:37.625Z,2.13
2023-08-27T20:55:59.044Z,2.07
2023-08-27T20:59:20.328Z,1.70
2023-08-27T21:02:43.139Z,2.10
2023-08-27T21:06:05.597Z,2.00
2023-08-27T21:09:27.001Z,2.03
2023-08-27T21:12:48.341Z,2.30
2023-08-27T21:16:09.807Z,1.80
2023-08-27T21:19:33.319Z,2.00
2023-08-27T21:22:54.981Z,2.27
2023-08-27T21:26:16.632Z,2.10
2023-08-27T21:29:38.306Z,2.10
2023-08-27T21:33:00.154Z,2.37
2023-08-27T21:36:23.206Z,2.60
2023-08-27T21:39:45.056Z,2.03
2023-08-27T21:43:07.213Z,1.90
2023-08-27T21:46:28.496Z,1.93
2023-08-27T21:49:49.775Z,1.90
2023-08-27T21:53:12.653Z,2.00
2023-08-27T21:56:33.952Z,1.90
2023-08-27T21:59:55.618Z,1.97
2023-08-27T22:03:17.925Z,1.97
2023-08-27T22:06:39.588Z,2.27
2023-08-27T22:10:02.638Z,1.80
2023-08-27T22:13:24.416Z,2.03
2023-08-27T22:16:46.549Z,2.10
2023-08-27T22:20:09.440Z,2.07
2023-08-27T22:23:30.995Z,1.97
2023-08-27T22:26:53.962Z,2.00
2023-08-27T22:30:15.865Z,2.00
2023-08-27T22:33:37.513Z,2.10
2023-08-27T22:36:58.812Z,2.17
2023-08-27T22:40:21.989Z,2.00
2023-08-27T22:43:45.898Z,2.00
2023-08-27T22:47:07.301Z,1.80
2023-08-27T22:50:28.774Z,2.00
2023-08-27T22:53:50.029Z,2.03
2023-08-27T22:57:11.605Z,2.30
2023-08-27T23:00:34.991Z,2.23
2023-08-27T23:03:56.535Z,2.20
2023-08-27T23:07:17.895Z,2.17
2023-08-27T23:10:39.406Z,2.20
2023-08-27T23:14:00.913Z,2.20
2023-08-27T23:17:23.588Z,3.00
2023-08-27T23:20:45.524Z,2.70
2023-08-27T23:24:08.676Z,2.13
2023-08-27T23:27:30.270Z,2.20
2023-08-27T23:30:59.407Z,2.30
2023-08-27T23:34:22.394Z,2.20
2023-08-27T23:37:43.905Z,2.20
2023-08-27T23:41:06.060Z,2.10
2023-08-27T23:44:27.623Z,2.40
2023-08-27T23:47:49.459Z,2.57
2023-08-27T23:51:12.362Z,2.20
2023-08-27T23:54:33.849Z,2.20
2023-08-27T23:57:55.127Z,2.60
